Time;durP1;ratioP1;P1;durP2;ratioP2;P2;SDS_P1;SDS_P2;PMS_P1;PMS_P2;Temp;Humidity;BMP_temperature;BMP_pressure;BME280_temperature;BME280_humidity;BME280_pressure;Samples;Min_cycle;Max_cycle;Signal;HPM_P1;HPM_P2
2023/12/30 00:01:13;;;;;;;10.70;1.70;;;;;;;;;;5072988;28;20084;-72
2023/12/30 00:03:39;;;;;;;7.68;1.50;;;;;;;;;;5072775;28;20086;-72
2023/12/30 00:06:05;;;;;;;10.75;1.77;;;;;;;;;;5074019;28;20571;-71
2023/12/30 00:08:31;;;;;;;10.40;1.42;;;;;;;;;;5073082;28;20453;-72
2023/12/30 00:10:57;;;;;;;8.43;2.05;;;;;;;;;;5072696;28;20493;-72
2023/12/30 00:13:23;;;;;;;15.25;2.15;;;;;;;;;;5072687;28;20131;-71
2023/12/30 00:15:49;;;;;;;9.48;1.30;;;;;;;;;;5074212;28;20094;-71
2023/12/30 00:18:15;;;;;;;9.65;1.58;;;;;;;;;;5074164;28;20044;-72
2023/12/30 00:20:41;;;;;;;8.02;1.55;;;;;;;;;;5072863;28;20043;-72
2023/12/30 00:23:07;;;;;;;11.70;1.50;;;;;;;;;;5072745;28;20135;-72
2023/12/30 00:25:33;;;;;;;6.75;1.27;;;;;;;;;;5072483;28;20521;-71
2023/12/30 00:27:59;;;;;;;9.63;1.65;;;;;;;;;;5072471;28;20040;-72
2023/12/30 00:30:25;;;;;;;9.90;1.52;;;;;;;;;;5072410;28;20049;-72
2023/12/30 00:32:51;;;;;;;9.60;1.90;;;;;;;;;;5073843;28;20045;-72
2023/12/30 00:35:17;;;;;;;6.68;1.33;;;;;;;;;;5072342;28;20194;-71
2023/12/30 00:37:43;;;;;;;9.45;1.80;;;;;;;;;;5073518;28;20548;-72
2023/12/30 00:40:10;;;;;;;8.82;1.35;;;;;;;;;;5072231;28;20134;-72
2023/12/30 00:42:36;;;;;;;8.02;1.30;;;;;;;;;;5072133;28;20055;-72
2023/12/30 00:45:02;;;;;;;7.03;1.40;;;;;;;;;;5072190;28;20072;-72
2023/12/30 00:47:28;;;;;;;10.60;1.60;;;;;;;;;;5073694;28;20094;-72
2023/12/30 00:49:54;;;;;;;9.13;1.20;;;;;;;;;;5072051;28;20413;-72
2023/12/30 00:52:20;;;;;;;7.22;1.25;;;;;;;;;;5073552;28;20036;-72
2023/12/30 00:54:45;;;;;;;11.35;1.50;;;;;;;;;;5073573;28;20115;-72
2023/12/30 00:57:11;;;;;;;12.05;1.88;;;;;;;;;;5072045;28;20040;-72
2023/12/30 00:59:37;;;;;;;7.85;1.23;;;;;;;;;;5072006;28;20416;-72
2023/12/30 01:02:03;;;;;;;9.98;1.65;;;;;;;;;;5072063;28;20135;-72
2023/12/30 01:04:29;;;;;;;13.57;1.90;;;;;;;;;;5055321;28;20128;-72
2023/12/30 01:06:55;;;;;;;11.70;1.65;;;;;;;;;;5071927;28;20079;-71
2023/12/30 01:09:21;;;;;;;11.13;1.60;;;;;;;;;;5073357;28;20097;-72
2023/12/30 01:11:47;;;;;;;8.77;1.40;;;;;;;;;;5071804;28;20048;-71
2023/12/30 01:14:14;;;;;;;8.50;1.30;;;;;;;;;;5071843;28;20047;-71
2023/12/30 01:16:40;;;;;;;11.18;1.35;;;;;;;;;;5072413;28;20041;-71
2023/12/30 01:19:06;;;;;;;8.20;1.60;;;;;;;;;;5072010;28;20056;-72
2023/12/30 01:21:32;;;;;;;9.23;1.35;;;;;;;;;;5071719;28;20044;-71
2023/12/30 01:23:58;;;;;;;8.63;1.58;;;;;;;;;;5071236;28;20036;-71
2023/12/30 01:26:24;;;;;;;9.15;1.35;;;;;;;;;;5071723;28;20039;-72
2023/12/30 01:28:50;;;;;;;11.20;1.65;;;;;;;;;;5073228;28;20036;-71
2023/12/30 01:31:17;;;;;;;10.30;1.60;;;;;;;;;;5054874;28;20044;-71
2023/12/30 01:33:43;;;;;;;13.98;1.73;;;;;;;;;;5071558;28;20041;-72
2023/12/30 01:36:09;;;;;;;8.00;1.30;;;;;;;;;;5071616;28;20037;-71
2023/12/30 01:38:35;;;;;;;9.40;1.50;;;;;;;;;;5073101;28;20124;-72
2023/12/30 01:41:01;;;;;;;11.68;1.52;;;;;;;;;;5071860;28;20040;-72
2023/12/30 01:43:28;;;;;;;8.63;1.13;;;;;;;;;;5071452;28;20041;-71
2023/12/30 01:45:56;;;;;;;7.03;1.67;;;;;;;;;;5073102;28;20044;-72
2023/12/30 01:48:23;;;;;;;6.97;1.40;;;;;;;;;;5072703;28;20449;-72
2023/12/30 01:50:49;;;;;;;11.40;1.85;;;;;;;;;;5072922;28;20047;-72
2023/12/30 01:53:16;;;;;;;10.80;1.70;;;;;;;;;;5072919;28;20120;-72
2023/12/30 01:55:42;;;;;;;10.48;1.60;;;;;;;;;;5071727;28;20047;-72
2023/12/30 01:58:08;;;;;;;9.05;1.33;;;;;;;;;;5072914;28;20124;-72
2023/12/30 02:00:35;;;;;;;9.38;1.20;;;;;;;;;;5072945;28;20127;-72
2023/12/30 02:03:01;;;;;;;10.93;1.92;;;;;;;;;;5054415;28;20051;-72
2023/12/30 02:05:28;;;;;;;10.57;1.80;;;;;;;;;;5071344;28;20037;-71
2023/12/30 02:07:54;;;;;;;10.82;1.70;;;;;;;;;;5071300;28;20037;-72
2023/12/30 02:10:20;;;;;;;10.27;1.65;;;;;;;;;;5072715;28;20080;-72
2023/12/30 02:12:46;;;;;;;7.00;1.73;;;;;;;;;;5054486;28;20072;-72
2023/12/30 02:15:13;;;;;;;8.98;1.23;;;;;;;;;;5071253;28;20043;-71
2023/12/30 02:17:39;;;;;;;13.73;1.80;;;;;;;;;;5072752;28;20043;-72
2023/12/30 02:20:05;;;;;;;12.93;2.72;;;;;;;;;;5072752;28;20044;-72
2023/12/30 02:22:31;;;;;;;13.02;2.10;;;;;;;;;;5071153;28;20041;-71
2023/12/30 02:25:00;;;;;;;13.57;1.85;;;;;;;;;;5071132;28;20040;-71
2023/12/30 02:27:26;;;;;;;14.18;2.30;;;;;;;;;;5071091;28;20417;-71
2023/12/30 02:29:52;;;;;;;8.50;2.55;;;;;;;;;;5071213;28;20063;-71
2023/12/30 02:32:18;;;;;;;12.75;1.83;;;;;;;;;;5071034;28;20090;-71
2023/12/30 02:34:45;;;;;;;15.50;1.83;;;;;;;;;;5071352;28;20032;-71
2023/12/30 02:37:11;;;;;;;9.57;1.67;;;;;;;;;;5074609;28;20048;-72
2023/12/30 02:39:37;;;;;;;8.30;1.30;;;;;;;;;;5074572;28;20083;-73
2023/12/30 02:42:03;;;;;;;8.00;1.35;;;;;;;;;;5075992;28;20076;-71
2023/12/30 02:44:29;;;;;;;13.23;1.83;;;;;;;;;;5075993;28;20051;-72
2023/12/30 02:46:55;;;;;;;10.75;1.80;;;;;;;;;;5075909;28;20127;-72
2023/12/30 02:49:21;;;;;;;15.57;2.20;;;;;;;;;;5075831;28;20045;-72
2023/12/30 02:51:47;;;;;;;13.95;2.10;;;;;;;;;;5057573;28;20040;-71
2023/12/30 02:54:13;;;;;;;12.40;1.90;;;;;;;;;;5075859;28;20078;-71
2023/12/30 02:56:39;;;;;;;10.95;1.52;;;;;;;;;;5074596;28;20081;-71
2023/12/30 02:59:05;;;;;;;5.50;1.55;;;;;;;;;;5074256;28;20135;-71
2023/12/30 03:01:31;;;;;;;14.23;1.73;;;;;;;;;;5074423;28;20032;-71
2023/12/30 03:03:59;;;;;;;9.23;1.70;;;;;;;;;;5075195;28;20040;-72
2023/12/30 03:06:25;;;;;;;13.55;1.92;;;;;;;;;;5074069;28;20090;-72
2023/12/30 03:08:51;;;;;;;12.88;1.40;;;;;;;;;;5074063;28;20094;-72
2023/12/30 03:11:17;;;;;;;12.50;1.65;;;;;;;;;;5074699;28;20052;-72
2023/12/30 03:13:43;;;;;;;11.95;1.40;;;;;;;;;;5074165;28;20055;-71
2023/12/30 03:16:16;;;;;;;11.02;2.13;;;;;;;;;;5075398;28;20044;-71
2023/12/30 03:18:43;;;;;;;9.95;2.05;;;;;;;;;;5074204;28;20105;-72
2023/12/30 03:21:10;;;;;;;9.07;1.38;;;;;;;;;;5073841;28;20052;-72
2023/12/30 03:23:37;;;;;;;12.40;1.65;;;;;;;;;;5073643;28;20487;-72
2023/12/30 03:26:04;;;;;;;11.50;2.20;;;;;;;;;;5073993;28;20044;-71
2023/12/30 03:28:30;;;;;;;10.82;1.50;;;;;;;;;;5073625;28;20127;-71
2023/12/30 03:30:56;;;;;;;11.68;1.70;;;;;;;;;;5073509;28;20105;-73
2023/12/30 03:33:23;;;;;;;11.48;2.17;;;;;;;;;;5073739;28;20033;-72
2023/12/30 03:35:49;;;;;;;12.55;1.80;;;;;;;;;;5073500;28;20524;-72
2023/12/30 03:38:15;;;;;;;17.35;1.55;;;;;;;;;;5073800;28;20080;-71
2023/12/30 03:40:41;;;;;;;10.90;1.88;;;;;;;;;;5073373;28;20127;-71
2023/12/30 03:43:07;;;;;;;15.57;2.33;;;;;;;;;;5056663;28;20048;-72
2023/12/30 03:45:33;;;;;;;14.43;1.75;;;;;;;;;;5074797;28;20040;-71
2023/12/30 03:47:59;;;;;;;10.05;2.70;;;;;;;;;;5073315;28;20046;-72
2023/12/30 03:50:25;;;;;;;12.23;2.38;;;;;;;;;;5073169;28;20098;-72
2023/12/30 03:52:51;;;;;;;9.70;1.67;;;;;;;;;;5073116;28;20043;-72
2023/12/30 03:55:17;;;;;;;11.85;1.67;;;;;;;;;;5073133;28;20032;-72
2023/12/30 03:57:43;;;;;;;9.57;1.77;;;;;;;;;;5056459;28;20044;-72
2023/12/30 04:00:10;;;;;;;14.13;1.60;;;;;;;;;;5074575;28;20047;-72
2023/12/30 04:02:36;;;;;;;11.80;1.98;;;;;;;;;;5072831;28;20195;-72
2023/12/30 04:05:02;;;;;;;10.77;2.03;;;;;;;;;;5074449;28;20045;-72
2023/12/30 04:07:28;;;;;;;9.30;2.10;;;;;;;;;;5056448;28;20048;-72
2023/12/30 04:09:54;;;;;;;12.73;2.38;;;;;;;;;;5072788;28;20052;-72
2023/12/30 04:12:20;;;;;;;14.73;2.15;;;;;;;;;;5072715;28;20067;-71
2023/12/30 04:14:47;;;;;;;10.65;1.70;;;;;;;;;;5072730;28;20086;-71
2023/12/30 04:17:13;;;;;;;13.27;1.70;;;;;;;;;;5072663;28;20429;-71
2023/12/30 04:19:39;;;;;;;12.70;1.80;;;;;;;;;;5072882;28;20390;-71
2023/12/30 04:22:05;;;;;;;13.63;2.20;;;;;;;;;;5072763;28;20040;-71
2023/12/30 04:24:31;;;;;;;14.07;2.95;;;;;;;;;;5073727;28;20405;-72
2023/12/30 04:26:57;;;;;;;13.73;1.88;;;;;;;;;;5072743;28;20048;-71
2023/12/30 04:29:24;;;;;;;9.80;1.60;;;;;;;;;;5072439;28;20413;-71
2023/12/30 04:31:50;;;;;;;12.02;1.77;;;;;;;;;;5072351;28;20558;-71
2023/12/30 04:34:16;;;;;;;13.40;1.80;;;;;;;;;;5072654;28;20044;-72
2023/12/30 04:36:42;;;;;;;11.57;2.10;;;;;;;;;;5072295;28;20044;-72
2023/12/30 04:39:08;;;;;;;15.88;1.92;;;;;;;;;;5072314;28;20033;-72
2023/12/30 04:41:35;;;;;;;10.95;2.15;;;;;;;;;;5073830;28;20032;-72
2023/12/30 04:44:01;;;;;;;12.05;2.00;;;;;;;;;;5073694;28;20097;-71
2023/12/30 04:46:27;;;;;;;13.18;1.85;;;;;;;;;;5072468;28;20041;-71
2023/12/30 04:48:54;;;;;;;17.63;2.20;;;;;;;;;;5055788;28;20043;-71
2023/12/30 04:51:20;;;;;;;16.67;2.20;;;;;;;;;;5072058;28;20087;-71
2023/12/30 04:53:46;;;;;;;11.88;2.03;;;;;;;;;;5073541;28;20044;-72
2023/12/30 04:56:19;;;;;;;10.90;1.95;;;;;;;;;;5072633;28;20036;-72
2023/12/30 04:58:45;;;;;;;12.48;3.10;;;;;;;;;;5072983;28;20032;-72
2023/12/30 05:01:14;;;;;;;9.32;1.63;;;;;;;;;;5072021;28;20105;-72
2023/12/30 05:03:43;;;;;;;14.70;1.80;;;;;;;;;;5071808;28;20044;-71
2023/12/30 05:06:17;;;;;;;11.43;2.10;;;;;;;;;;5071944;28;20044;-72
2023/12/30 05:08:43;;;;;;;13.05;2.63;;;;;;;;;;5073450;28;20123;-72
2023/12/30 05:11:09;;;;;;;11.15;2.00;;;;;;;;;;5071930;28;20139;-72
2023/12/30 05:13:35;;;;;;;12.07;1.90;;;;;;;;;;5073367;28;20401;-72
2023/12/30 05:16:01;;;;;;;18.10;2.08;;;;;;;;;;5072076;28;20082;-72
2023/12/30 05:18:27;;;;;;;10.00;1.92;;;;;;;;;;5071837;28;20043;-72
2023/12/30 05:20:53;;;;;;;13.00;1.83;;;;;;;;;;5071824;28;20051;-72
2023/12/30 05:23:19;;;;;;;19.50;2.45;;;;;;;;;;5071690;28;20080;-71
2023/12/30 05:25:45;;;;;;;14.00;2.28;;;;;;;;;;5071739;28;20045;-71
2023/12/30 05:28:11;;;;;;;12.75;1.90;;;;;;;;;;5072188;28;20045;-71
2023/12/30 05:30:37;;;;;;;13.82;1.90;;;;;;;;;;5071687;28;20600;-71
2023/12/30 05:33:04;;;;;;;7.97;1.60;;;;;;;;;;5071880;28;20044;-71
2023/12/30 05:35:30;;;;;;;11.27;1.88;;;;;;;;;;5073231;28;20044;-71
2023/12/30 05:37:56;;;;;;;15.57;2.47;;;;;;;;;;5071607;28;20040;-71
2023/12/30 05:40:22;;;;;;;20.48;2.70;;;;;;;;;;5071605;28;20102;-71
2023/12/30 05:42:48;;;;;;;14.80;2.15;;;;;;;;;;5071502;28;20040;-71
2023/12/30 05:45:14;;;;;;;17.48;2.40;;;;;;;;;;5071606;28;20048;-71
2023/12/30 05:47:40;;;;;;;14.30;2.00;;;;;;;;;;5071586;28;20097;-71
2023/12/30 05:50:06;;;;;;;15.93;2.75;;;;;;;;;;5072978;28;20044;-71
2023/12/30 05:52:34;;;;;;;16.55;2.00;;;;;;;;;;5071437;28;20037;-71
2023/12/30 05:55:00;;;;;;;10.52;2.03;;;;;;;;;;5071484;28;20497;-71
2023/12/30 05:57:26;;;;;;;16.70;2.00;;;;;;;;;;5071467;28;20124;-71
2023/12/30 05:59:52;;;;;;;17.10;2.45;;;;;;;;;;5071376;28;20048;-71
2023/12/30 06:02:18;;;;;;;16.30;2.17;;;;;;;;;;5072415;28;20531;-71
2023/12/30 06:04:44;;;;;;;13.93;2.38;;;;;;;;;;5054749;28;20043;-72
2023/12/30 06:07:10;;;;;;;15.27;2.00;;;;;;;;;;5071352;28;20123;-72
2023/12/30 06:09:36;;;;;;;13.25;2.17;;;;;;;;;;5072612;28;20044;-72
2023/12/30 06:12:02;;;;;;;11.73;2.22;;;;;;;;;;5075387;28;20041;-72
2023/12/30 06:14:28;;;;;;;12.55;2.05;;;;;;;;;;5075034;28;20467;-71
2023/12/30 06:16:54;;;;;;;20.13;2.53;;;;;;;;;;5074987;28;20409;-71
2023/12/30 06:19:20;;;;;;;13.63;2.35;;;;;;;;;;5076175;28;20501;-71
2023/12/30 06:21:46;;;;;;;15.25;2.45;;;;;;;;;;5076323;28;20105;-72
2023/12/30 06:24:12;;;;;;;12.90;2.42;;;;;;;;;;5058217;28;20037;-71
2023/12/30 06:26:39;;;;;;;13.40;1.73;;;;;;;;;;5076349;28;20032;-71
2023/12/30 06:29:05;;;;;;;11.15;3.00;;;;;;;;;;5074986;28;20048;-72
2023/12/30 06:31:31;;;;;;;18.25;2.85;;;;;;;;;;5058033;28;20033;-72
2023/12/30 06:33:57;;;;;;;11.30;1.98;;;;;;;;;;5074888;28;20041;-71
2023/12/30 06:36:24;;;;;;;17.45;2.38;;;;;;;;;;5075850;28;20093;-71
2023/12/30 06:38:50;;;;;;;11.70;2.78;;;;;;;;;;5076143;28;20036;-71
2023/12/30 06:41:20;;;;;;;14.75;2.42;;;;;;;;;;5076144;28;20045;-71
2023/12/30 06:43:47;;;;;;;16.27;2.17;;;;;;;;;;5076021;28;20044;-71
2023/12/30 06:46:13;;;;;;;12.48;2.90;;;;;;;;;;5074815;28;20040;-71
2023/12/30 06:48:39;;;;;;;14.35;2.85;;;;;;;;;;5075994;28;20153;-71
2023/12/30 06:51:09;;;;;;;18.75;2.60;;;;;;;;;;5074383;28;20051;-71
2023/12/30 06:53:35;;;;;;;12.85;2.75;;;;;;;;;;5074345;28;20115;-72
2023/12/30 06:56:01;;;;;;;17.38;2.35;;;;;;;;;;5075842;28;20032;-72
2023/12/30 06:58:28;;;;;;;17.17;2.75;;;;;;;;;;5074238;28;20405;-72
2023/12/30 07:00:57;;;;;;;14.38;2.35;;;;;;;;;;5075762;28;20044;-72
2023/12/30 07:03:23;;;;;;;15.05;2.25;;;;;;;;;;5075323;28;20051;-71
2023/12/30 07:05:49;;;;;;;18.55;2.97;;;;;;;;;;5074367;28;20044;-71
2023/12/30 07:08:16;;;;;;;12.40;1.67;;;;;;;;;;5074072;28;20044;-71
2023/12/30 07:10:42;;;;;;;9.30;1.77;;;;;;;;;;5074003;28;20527;-72
2023/12/30 07:13:08;;;;;;;15.43;2.15;;;;;;;;;;5073917;28;20040;-72
2023/12/30 07:15:34;;;;;;;14.80;2.00;;;;;;;;;;5073935;28;20079;-72
2023/12/30 07:18:00;;;;;;;17.42;2.70;;;;;;;;;;5074138;28;20093;-71
2023/12/30 07:20:26;;;;;;;14.50;2.13;;;;;;;;;;5073549;28;20040;-71
2023/12/30 07:22:53;;;;;;;11.52;2.13;;;;;;;;;;5056672;28;20040;-71
2023/12/30 07:25:19;;;;;;;15.98;2.50;;;;;;;;;;5073989;28;20063;-72
2023/12/30 07:27:45;;;;;;;14.52;2.30;;;;;;;;;;5073680;28;20040;-72
2023/12/30 07:30:11;;;;;;;19.92;2.13;;;;;;;;;;5075152;28;20170;-72
2023/12/30 07:32:37;;;;;;;12.32;1.90;;;;;;;;;;5075061;28;20040;-72
2023/12/30 07:35:05;;;;;;;19.63;2.47;;;;;;;;;;5073564;28;20086;-72
2023/12/30 07:37:32;;;;;;;17.45;2.80;;;;;;;;;;5073528;28;20037;-72
2023/12/30 07:39:58;;;;;;;17.50;2.05;;;;;;;;;;5074938;28;20043;-72
2023/12/30 07:42:24;;;;;;;15.00;2.80;;;;;;;;;;5074839;28;20094;-71
2023/12/30 07:44:51;;;;;;;13.10;2.33;;;;;;;;;;5074908;28;20045;-72
2023/12/30 07:47:17;;;;;;;14.30;2.33;;;;;;;;;;5073581;28;20098;-72
2023/12/30 07:49:43;;;;;;;19.55;2.53;;;;;;;;;;5073404;28;20040;-72
2023/12/30 07:52:09;;;;;;;13.18;1.95;;;;;;;;;;5073111;28;20492;-71
2023/12/30 07:54:35;;;;;;;11.07;2.00;;;;;;;;;;5074397;28;20097;-71
2023/12/30 07:57:01;;;;;;;18.45;1.92;;;;;;;;;;5073133;28;20048;-71
2023/12/30 07:59:26;;;;;;;13.52;2.00;;;;;;;;;;5074680;28;20044;-71
2023/12/30 08:01:56;;;;;;;12.43;2.42;;;;;;;;;;5074430;28;20036;-72
2023/12/30 08:04:22;;;;;;;11.02;2.50;;;;;;;;;;5072984;28;20047;-72
2023/12/30 08:06:48;;;;;;;12.80;2.42;;;;;;;;;;5074458;28;20040;-72
2023/12/30 08:09:14;;;;;;;13.18;2.80;;;;;;;;;;5072822;28;20493;-71
2023/12/30 08:11:41;;;;;;;8.82;2.30;;;;;;;;;;5056228;28;20043;-71
2023/12/30 08:14:07;;;;;;;10.77;1.95;;;;;;;;;;5074214;28;20102;-71
2023/12/30 08:16:35;;;;;;;14.68;1.95;;;;;;;;;;5073007;28;20048;-71
2023/12/30 08:19:02;;;;;;;12.20;2.00;;;;;;;;;;5072702;28;20044;-71
2023/12/30 08:21:28;;;;;;;14.80;2.40;;;;;;;;;;5072642;28;20040;-71
2023/12/30 08:23:56;;;;;;;12.95;2.05;;;;;;;;;;5074122;28;20036;-71
2023/12/30 08:26:22;;;;;;;11.15;1.98;;;;;;;;;;5072577;28;20045;-71
2023/12/30 08:28:48;;;;;;;15.27;2.25;;;;;;;;;;5072488;28;20416;-71
2023/12/30 08:31:14;;;;;;;12.00;2.00;;;;;;;;;;5072447;28;20098;-74
2023/12/30 08:33:40;;;;;;;14.27;2.22;;;;;;;;;;5072976;28;20085;-71
2023/12/30 08:36:06;;;;;;;15.32;2.20;;;;;;;;;;5073925;28;20132;-71
2023/12/30 08:38:33;;;;;;;17.60;2.47;;;;;;;;;;5072625;28;20059;-71
2023/12/30 08:40:59;;;;;;;15.73;2.55;;;;;;;;;;5072264;28;20417;-71
2023/12/30 08:43:25;;;;;;;11.73;2.08;;;;;;;;;;5074199;28;20044;-71
2023/12/30 08:45:51;;;;;;;14.07;2.00;;;;;;;;;;5073802;28;20037;-71
2023/12/30 08:48:17;;;;;;;8.82;1.73;;;;;;;;;;5072184;28;20496;-71
2023/12/30 08:50:44;;;;;;;15.55;2.33;;;;;;;;;;5072229;28;20044;-71
2023/12/30 08:53:11;;;;;;;13.60;3.03;;;;;;;;;;5072509;28;20028;-71
2023/12/30 08:55:37;;;;;;;12.73;2.17;;;;;;;;;;5072950;28;20048;-71
2023/12/30 08:58:03;;;;;;;13.90;2.20;;;;;;;;;;5073653;28;20032;-71
2023/12/30 09:00:29;;;;;;;11.00;2.33;;;;;;;;;;5072202;28;20044;-71
2023/12/30 09:02:56;;;;;;;15.05;2.13;;;;;;;;;;5071813;28;20073;-71
2023/12/30 09:05:22;;;;;;;13.27;1.92;;;;;;;;;;5072392;28;20053;-71
2023/12/30 09:07:49;;;;;;;9.35;2.05;;;;;;;;;;5073440;28;20037;-72
2023/12/30 09:10:16;;;;;;;17.45;2.15;;;;;;;;;;5073376;28;20051;-72
2023/12/30 09:12:42;;;;;;;13.23;2.20;;;;;;;;;;5073095;28;20456;-72
2023/12/30 09:15:08;;;;;;;12.75;2.15;;;;;;;;;;5071880;28;20037;-72
2023/12/30 09:17:34;;;;;;;12.43;2.20;;;;;;;;;;5071871;28;20157;-72
2023/12/30 09:20:01;;;;;;;12.68;2.72;;;;;;;;;;5071899;28;20048;-72
2023/12/30 09:22:27;;;;;;;17.17;3.60;;;;;;;;;;5072211;28;20040;-71
2023/12/30 09:24:53;;;;;;;14.55;3.40;;;;;;;;;;5071811;28;20044;-71
2023/12/30 09:27:20;;;;;;;16.10;3.03;;;;;;;;;;5072037;28;20101;-71
2023/12/30 09:29:46;;;;;;;17.42;3.50;;;;;;;;;;5071667;28;20098;-71
2023/12/30 09:32:12;;;;;;;15.88;2.97;;;;;;;;;;5072024;28;20041;-71
2023/12/30 09:34:38;;;;;;;18.25;2.90;;;;;;;;;;5073359;28;20075;-71
2023/12/30 09:37:04;;;;;;;13.02;2.63;;;;;;;;;;5071728;28;20076;-72
2023/12/30 09:39:30;;;;;;;14.40;2.10;;;;;;;;;;5073151;28;20055;-71
2023/12/30 09:41:56;;;;;;;15.20;2.58;;;;;;;;;;5071568;28;20552;-71
2023/12/30 09:44:25;;;;;;;15.95;2.70;;;;;;;;;;5073850;28;20489;-71
2023/12/30 09:46:52;;;;;;;12.48;1.80;;;;;;;;;;5075677;28;20047;-71
2023/12/30 09:49:18;;;;;;;9.95;1.95;;;;;;;;;;5077027;28;20036;-71
2023/12/30 09:51:44;;;;;;;9.35;1.92;;;;;;;;;;5075629;28;20037;-71
2023/12/30 09:54:10;;;;;;;10.25;2.00;;;;;;;;;;5075790;28;20090;-71
2023/12/30 09:56:36;;;;;;;14.68;1.77;;;;;;;;;;5076960;28;20502;-71
2023/12/30 09:59:03;;;;;;;12.35;2.25;;;;;;;;;;5077164;28;20064;-71
2023/12/30 10:01:30;;;;;;;12.13;2.00;;;;;;;;;;5076155;28;20040;-71
2023/12/30 10:03:56;;;;;;;13.80;2.10;;;;;;;;;;5075344;28;20401;-71
2023/12/30 10:06:23;;;;;;;12.30;2.25;;;;;;;;;;5075693;28;20036;-72
2023/12/30 10:08:49;;;;;;;12.50;1.98;;;;;;;;;;5075444;28;20447;-72
2023/12/30 10:11:16;;;;;;;10.02;2.22;;;;;;;;;;5076313;28;20485;-72
2023/12/30 10:13:42;;;;;;;13.10;2.03;;;;;;;;;;5075328;28;20106;-71
2023/12/30 10:16:08;;;;;;;13.55;1.80;;;;;;;;;;5075351;28;20443;-71
2023/12/30 10:18:38;;;;;;;10.98;2.33;;;;;;;;;;5075052;28;20501;-71
2023/12/30 10:21:04;;;;;;;15.23;4.13;;;;;;;;;;5075015;28;20041;-71
2023/12/30 10:23:31;;;;;;;13.40;1.70;;;;;;;;;;5074871;28;20098;-71
2023/12/30 10:25:57;;;;;;;11.68;1.67;;;;;;;;;;5076069;28;20470;-71
2023/12/30 10:28:23;;;;;;;11.25;2.10;;;;;;;;;;5075090;28;20142;-71
2023/12/30 10:31:00;;;;;;;15.95;2.17;;;;;;;;;;5074687;28;20494;-71
2023/12/30 10:33:26;;;;;;;13.10;2.80;;;;;;;;;;5076215;28;20550;-72
2023/12/30 10:35:54;;;;;;;12.77;2.83;;;;;;;;;;5057984;28;20041;-71
2023/12/30 10:38:20;;;;;;;9.48;1.90;;;;;;;;;;5058022;28;20032;-71
2023/12/30 10:40:46;;;;;;;15.98;2.60;;;;;;;;;;5074647;28;20049;-71
2023/12/30 10:43:12;;;;;;;12.05;2.20;;;;;;;;;;5074560;28;20048;-71
2023/12/30 10:45:38;;;;;;;9.82;2.28;;;;;;;;;;5075959;28;20045;-71
2023/12/30 10:48:06;;;;;;;15.07;2.58;;;;;;;;;;5074503;28;20052;-71
2023/12/30 10:50:32;;;;;;;10.13;2.42;;;;;;;;;;5075563;28;20448;-71
2023/12/30 10:53:21;;;;;;;9.68;1.92;;;;;;;;;;5074338;28;20386;-71
2023/12/30 10:55:51;;;;;;;15.27;2.45;;;;;;;;;;5075393;28;20136;-72
2023/12/30 10:58:18;;;;;;;12.68;2.85;;;;;;;;;;5074349;28;20047;-71
2023/12/30 11:00:48;;;;;;;12.30;2.30;;;;;;;;;;5074278;28;20079;-71
2023/12/30 11:03:14;;;;;;;11.38;2.58;;;;;;;;;;5075373;28;20041;-71
2023/12/30 11:06:01;;;;;;;14.75;2.80;;;;;;;;;;5074449;28;20096;-71
2023/12/30 11:08:27;;;;;;;19.00;3.85;;;;;;;;;;5075254;28;20055;-72
2023/12/30 11:10:55;;;;;;;18.02;2.70;;;;;;;;;;5075212;28;20048;-72
2023/12/30 11:13:21;;;;;;;13.27;2.95;;;;;;;;;;5075524;28;20041;-72
2023/12/30 11:15:47;;;;;;;12.43;3.20;;;;;;;;;;5073979;28;20524;-72
2023/12/30 11:18:13;;;;;;;14.85;3.42;;;;;;;;;;5074283;28;20080;-74
2023/12/30 11:20:46;;;;;;;8.90;2.90;;;;;;;;;;5074170;28;20458;-72
2023/12/30 11:23:14;;;;;;;13.20;3.45;;;;;;;;;;5075350;28;20123;-72
2023/12/30 11:25:44;;;;;;;13.30;2.97;;;;;;;;;;5074139;28;20094;-71
2023/12/30 11:28:13;;;;;;;11.95;2.90;;;;;;;;;;5075303;28;20123;-72
2023/12/30 11:30:40;;;;;;;12.18;3.22;;;;;;;;;;5073600;28;20044;-72
2023/12/30 11:33:06;;;;;;;12.55;2.95;;;;;;;;;;5074028;28;20047;-72
2023/12/30 11:35:32;;;;;;;16.02;3.58;;;;;;;;;;5073601;28;20093;-72
2023/12/30 11:38:00;;;;;;;14.55;3.53;;;;;;;;;;5073566;28;20127;-72
2023/12/30 11:40:28;;;;;;;16.38;3.75;;;;;;;;;;5057127;28;20048;-72
2023/12/30 11:42:54;;;;;;;15.32;3.42;;;;;;;;;;5074960;28;20083;-72
2023/12/30 11:45:21;;;;;;;15.25;3.55;;;;;;;;;;5073721;28;20055;-72
2023/12/30 11:47:47;;;;;;;17.33;4.05;;;;;;;;;;5074526;28;20419;-72
2023/12/30 11:50:14;;;;;;;11.90;2.85;;;;;;;;;;5073254;28;20036;-72
2023/12/30 11:52:49;;;;;;;17.30;3.75;;;;;;;;;;5074737;28;20036;-71
2023/12/30 11:55:15;;;;;;;15.25;3.40;;;;;;;;;;5073221;28;20040;-72
2023/12/30 11:57:42;;;;;;;14.50;3.25;;;;;;;;;;5074672;28;20059;-72
2023/12/30 12:00:08;;;;;;;15.77;3.22;;;;;;;;;;5073111;28;20066;-72
2023/12/30 12:02:34;;;;;;;13.35;3.38;;;;;;;;;;5072798;28;20042;-72
2023/12/30 12:05:01;;;;;;;14.75;3.28;;;;;;;;;;5074009;28;20041;-72
2023/12/30 12:07:27;;;;;;;16.77;3.20;;;;;;;;;;5072807;28;20040;-72
2023/12/30 12:09:53;;;;;;;16.35;3.60;;;;;;;;;;5074461;28;20051;-73
2023/12/30 12:12:23;;;;;;;13.95;2.90;;;;;;;;;;5056191;28;20093;-73
2023/12/30 12:14:51;;;;;;;12.90;2.95;;;;;;;;;;5073137;28;20079;-72
2023/12/30 12:17:20;;;;;;;14.63;3.13;;;;;;;;;;5074312;28;20036;-71
2023/12/30 12:19:46;;;;;;;12.90;2.97;;;;;;;;;;5072998;28;20094;-72
2023/12/30 12:22:13;;;;;;;14.00;2.45;;;;;;;;;;5055990;28;20043;-72
2023/12/30 12:24:39;;;;;;;12.10;2.72;;;;;;;;;;5072891;28;20040;-72
2023/12/30 12:27:05;;;;;;;14.07;3.55;;;;;;;;;;5072874;28;20123;-71
2023/12/30 12:29:32;;;;;;;16.67;3.22;;;;;;;;;;5073989;28;20040;-72
2023/12/30 12:31:58;;;;;;;13.30;2.60;;;;;;;;;;5072693;28;20040;-72
2023/12/30 12:34:25;;;;;;;14.40;3.58;;;;;;;;;;5072813;28;20501;-72
2023/12/30 12:36:51;;;;;;;13.00;2.55;;;;;;;;;;5072648;28;20045;-72
2023/12/30 12:39:17;;;;;;;13.90;2.80;;;;;;;;;;5072638;28;20048;-72
2023/12/30 12:41:44;;;;;;;17.55;3.50;;;;;;;;;;5073846;28;20037;-72
2023/12/30 12:44:10;;;;;;;12.02;2.63;;;;;;;;;;5073699;28;20052;-72
2023/12/30 12:46:37;;;;;;;12.82;3.65;;;;;;;;;;5072231;28;20044;-72
2023/12/30 12:49:03;;;;;;;14.32;2.38;;;;;;;;;;5072347;28;20040;-72
2023/12/30 12:51:32;;;;;;;14.70;2.13;;;;;;;;;;5072380;28;20041;-72
2023/12/30 12:53:58;;;;;;;16.35;2.97;;;;;;;;;;5073995;28;20040;-71
2023/12/30 12:56:24;;;;;;;17.98;2.80;;;;;;;;;;5072383;28;20041;-72
2023/12/30 12:58:50;;;;;;;19.25;3.15;;;;;;;;;;5072148;28;20479;-72
2023/12/30 13:01:16;;;;;;;15.93;3.03;;;;;;;;;;5073614;28;20178;-72
2023/12/30 13:03:42;;;;;;;19.75;3.58;;;;;;;;;;5071862;28;20059;-71
2023/12/30 13:06:12;;;;;;;10.38;2.20;;;;;;;;;;5073495;28;20045;-72
2023/12/30 13:08:38;;;;;;;16.50;3.58;;;;;;;;;;5072066;28;20044;-72
2023/12/30 13:11:05;;;;;;;17.52;3.22;;;;;;;;;;5071903;28;20051;-72
2023/12/30 13:13:30;;;;;;;17.48;2.85;;;;;;;;;;5071909;28;20497;-71
2023/12/30 13:16:00;;;;;;;17.70;3.10;;;;;;;;;;5071922;28;20039;-71
2023/12/30 13:18:27;;;;;;;18.55;3.20;;;;;;;;;;5073393;28;20037;-71
2023/12/30 13:20:55;;;;;;;16.95;3.13;;;;;;;;;;5073095;28;20085;-71
2023/12/30 13:23:21;;;;;;;19.50;3.22;;;;;;;;;;5072148;28;20421;-71
2023/12/30 13:25:47;;;;;;;18.00;2.90;;;;;;;;;;5072082;28;20044;-71
2023/12/30 13:28:14;;;;;;;20.67;3.78;;;;;;;;;;5072022;28;20037;-72
2023/12/30 13:30:43;;;;;;;16.38;3.15;;;;;;;;;;5071647;28;20049;-71
2023/12/30 13:33:11;;;;;;;16.20;3.38;;;;;;;;;;5071671;28;20041;-71
2023/12/30 13:35:38;;;;;;;15.07;3.30;;;;;;;;;;5073217;28;20045;-72
2023/12/30 13:38:15;;;;;;;18.52;4.00;;;;;;;;;;5073167;28;20090;-72
2023/12/30 13:40:41;;;;;;;16.55;4.07;;;;;;;;;;5073187;28;20107;-71
2023/12/30 13:43:09;;;;;;;20.52;4.20;;;;;;;;;;5073114;28;20124;-72
2023/12/30 13:45:43;;;;;;;21.83;4.45;;;;;;;;;;5072611;28;20044;-73
2023/12/30 13:50:56;;;;;;;19.27;3.78;;;;;;;;;;5073065;28;20066;-73
2023/12/30 13:53:23;;;;;;;17.95;3.63;;;;;;;;;;5071680;28;20558;-73
2023/12/30 13:55:51;;;;;;;19.98;4.57;;;;;;;;;;5055374;28;20041;-72
2023/12/30 13:58:16;;;;;;;20.13;3.95;;;;;;;;;;5073229;28;20040;-72
2023/12/30 14:00:43;;;;;;;18.13;5.10;;;;;;;;;;5072006;28;20043;-72
2023/12/30 14:03:09;;;;;;;19.75;5.50;;;;;;;;;;5054846;28;20090;-72
2023/12/30 14:05:40;;;;;;;21.90;5.03;;;;;;;;;;5072948;28;20089;-72
2023/12/30 14:08:19;;;;;;;27.40;5.88;;;;;;;;;;5054698;28;20492;-72
2023/12/30 14:10:50;;;;;;;22.15;5.55;;;;;;;;;;5072962;28;20106;-71
2023/12/30 14:13:16;;;;;;;23.92;6.00;;;;;;;;;;5071420;28;20057;-71
2023/12/30 14:15:47;;;;;;;20.45;6.10;;;;;;;;;;5072818;28;20043;-71
2023/12/30 14:18:14;;;;;;;26.67;6.97;;;;;;;;;;5071524;28;20489;-71
2023/12/30 14:20:40;;;;;;;23.88;6.80;;;;;;;;;;5072447;28;20493;-71
2023/12/30 14:23:06;;;;;;;24.17;8.63;;;;;;;;;;5071436;28;20101;-71
2023/12/30 14:25:32;;;;;;;27.08;7.05;;;;;;;;;;5071224;28;20055;-71
2023/12/30 14:28:01;;;;;;;28.77;7.88;;;;;;;;;;5071193;28;20052;-71
2023/12/30 14:30:27;;;;;;;27.23;8.30;;;;;;;;;;5073673;28;20051;-71